createdAt,value
2023-05-24T00:00:48.836Z,98305.03
2023-05-24T00:03:19.041Z,98290.47
2023-05-24T00:05:48.850Z,98292.09
2023-05-24T00:08:17.518Z,98276.31
2023-05-24T00:10:45.845Z,98294.41
2023-05-24T00:13:15.498Z,98299.03
2023-05-24T00:15:43.949Z,98274.59
2023-05-24T00:18:12.507Z,98286.63
2023-05-24T00:20:42.875Z,98266.09
2023-05-24T00:23:11.695Z,98281.22
2023-05-24T00:25:40.209Z,98284.19
2023-05-24T00:28:11.429Z,98286.75
2023-05-24T00:30:40.173Z,98288.78
2023-05-24T00:33:08.916Z,98276.63
2023-05-24T00:35:37.980Z,98278.50
2023-05-24T00:38:08.034Z,98274.09
2023-05-24T00:40:36.634Z,98273.34
2023-05-24T00:43:05.127Z,98269.84
2023-05-24T00:45:34.058Z,98258.94
2023-05-24T00:48:03.078Z,98268.09
2023-05-24T00:50:33.446Z,98268.97
2023-05-24T00:53:04.384Z,98250.25
2023-05-24T00:55:36.798Z,98279.41
2023-05-24T00:58:05.807Z,98270.72
2023-05-24T01:00:34.648Z,98274.19
2023-05-24T01:03:03.522Z,98269.84
2023-05-24T01:05:32.175Z,98268.13
2023-05-24T01:08:12.072Z,98269.84
2023-05-24T01:10:51.718Z,98269.88
2023-05-24T01:13:28.724Z,98244.41
2023-05-24T01:16:02.209Z,98268.19
2023-05-24T01:18:35.032Z,98267.44
2023-05-24T01:21:18.099Z,98269.94
2023-05-24T01:23:50.883Z,98263.13
2023-05-24T01:26:38.534Z,98257.28
2023-05-24T01:29:09.826Z,98254.94
2023-05-24T01:31:38.520Z,98257.28
2023-05-24T01:34:07.686Z,98251.47
2023-05-24T01:36:36.387Z,98265.25
2023-05-24T01:39:05.929Z,98259.41
2023-05-24T01:41:40.982Z,98242.53
2023-05-24T01:44:18.623Z,98258.66
2023-05-24T01:46:52.677Z,98256.97
2023-05-24T01:49:24.563Z,98255.97
2023-05-24T01:51:57.668Z,98265.66
2023-05-24T01:54:29.974Z,98256.22
2023-05-24T01:57:00.304Z,98261.50
2023-05-24T01:59:31.449Z,98264.00
2023-05-24T02:02:00.412Z,98262.28
2023-05-24T02:04:29.276Z,98276.59
2023-05-24T02:06:58.162Z,98258.84
2023-05-24T02:09:28.082Z,98262.47
2023-05-24T02:11:56.578Z,98267.63
2023-05-24T02:14:24.927Z,98268.72
2023-05-24T02:16:59.046Z,98269.56
2023-05-24T02:19:27.823Z,98262.66
2023-05-24T02:21:56.250Z,98259.28
2023-05-24T02:24:24.937Z,98264.50
2023-05-24T02:26:53.366Z,98250.78
2023-05-24T02:29:21.795Z,98274.75
2023-05-24T02:31:55.165Z,98258.56
2023-05-24T02:34:25.512Z,98259.34
2023-05-24T02:36:56.009Z,98267.97
2023-05-24T02:39:24.214Z,98270.53
2023-05-24T02:41:52.479Z,98264.75
2023-05-24T02:44:20.843Z,98268.16
2023-05-24T02:46:48.992Z,98231.63
2023-05-24T02:49:17.314Z,98260.38
2023-05-24T02:51:47.298Z,98245.25
2023-05-24T02:54:17.955Z,98267.91
2023-05-24T02:56:46.774Z,98266.44
2023-05-24T02:59:15.102Z,98257.09
2023-05-24T03:01:43.312Z,98259.66
2023-05-24T03:04:11.739Z,98264.16
2023-05-24T03:06:40.044Z,98261.66
2023-05-24T03:09:09.657Z,98254.84
2023-05-24T03:11:37.791Z,98271.63
2023-05-24T03:14:07.038Z,98271.88
2023-05-24T03:16:35.539Z,98274.31
2023-05-24T03:19:03.866Z,98276.97
2023-05-24T03:21:32.223Z,98274.44
2023-05-24T03:24:00.593Z,98274.44
2023-05-24T03:26:30.318Z,98266.59
2023-05-24T03:28:58.619Z,98277.78
2023-05-24T03:31:26.950Z,98262.56
2023-05-24T03:33:56.046Z,98272.66
2023-05-24T03:36:26.286Z,98275.03
2023-05-24T03:38:55.029Z,98283.00
2023-05-24T03:41:23.292Z,98277.16
2023-05-24T03:43:53.002Z,98285.75
2023-05-24T03:46:21.518Z,98273.94
2023-05-24T03:48:50.037Z,98278.16
2023-05-24T03:51:18.629Z,98279.72
2023-05-24T03:53:47.313Z,98279.78
2023-05-24T03:56:16.176Z,98261.84
2023-05-24T03:58:44.604Z,98283.19
2023-05-24T04:01:25.497Z,98275.47
2023-05-24T04:04:01.634Z,98282.41
2023-05-24T04:06:30.310Z,98285.81
2023-05-24T04:08:59.467Z,98297.00
2023-05-24T04:11:28.727Z,98290.84
2023-05-24T04:13:57.411Z,98287.81
2023-05-24T04:16:27.572Z,98290.25
2023-05-24T04:18:56.261Z,98295.47
2023-05-24T04:21:24.943Z,98245.53
2023-05-24T04:23:53.133Z,98285.94
2023-05-24T04:26:22.141Z,98284.22
2023-05-24T04:28:50.284Z,98285.75
2023-05-24T04:31:18.641Z,98286.59
2023-05-24T04:33:50.172Z,98289.94
2023-05-24T04:36:19.503Z,98280.75
2023-05-24T04:38:47.778Z,98290.19
2023-05-24T04:41:16.339Z,98286.13
2023-05-24T04:43:45.070Z,98291.09
2023-05-24T04:46:14.130Z,98288.53
2023-05-24T04:48:42.579Z,98288.47
2023-05-24T04:51:12.200Z,98296.13
2023-05-24T04:53:41.582Z,98288.69
2023-05-24T04:56:10.009Z,98280.75
2023-05-24T04:58:39.516Z,98296.75
2023-05-24T05:01:07.816Z,98288.50
2023-05-24T05:03:36.110Z,98293.34
2023-05-24T05:06:04.707Z,98283.91
2023-05-24T05:08:34.601Z,98291.81
2023-05-24T05:11:02.967Z,98293.59
2023-05-24T05:13:31.308Z,98293.66
2023-05-24T05:15:59.636Z,98269.16
2023-05-24T05:18:28.476Z,98288.22
2023-05-24T05:20:57.329Z,98290.72
2023-05-24T05:23:26.092Z,98294.38
2023-05-24T05:25:55.991Z,98299.16
2023-05-24T05:28:24.303Z,98298.53
2023-05-24T05:30:54.005Z,98298.53
2023-05-24T05:33:22.615Z,98299.91
2023-05-24T05:35:53.403Z,98307.44
2023-05-24T05:38:23.145Z,98302.03
2023-05-24T05:40:52.575Z,98304.78
2023-05-24T05:43:22.425Z,98296.69
2023-05-24T05:45:50.881Z,98296.16
2023-05-24T05:48:19.327Z,98304.53
2023-05-24T05:50:47.542Z,98312.81
2023-05-24T05:53:17.049Z,98313.09
2023-05-24T05:55:45.409Z,98309.66
2023-05-24T05:58:13.657Z,98312.50
2023-05-24T06:00:43.725Z,98298.91
2023-05-24T06:03:12.379Z,98320.13
2023-05-24T06:05:40.955Z,98323.16
2023-05-24T06:08:09.169Z,98327.38
2023-05-24T06:10:37.715Z,98318.22
2023-05-24T06:13:06.720Z,98333.53
2023-05-24T06:15:35.156Z,98336.56
2023-05-24T06:18:05.598Z,98324.63
2023-05-24T06:20:34.173Z,98325.38
2023-05-24T06:23:03.018Z,98300.34
2023-05-24T06:25:33.182Z,98326.41
2023-05-24T06:28:01.770Z,98333.88
2023-05-24T06:30:31.704Z,98330.91
2023-05-24T06:33:01.829Z,98330.50
2023-05-24T06:35:31.683Z,98339.94
2023-05-24T06:38:00.208Z,98330.19
2023-05-24T06:40:28.729Z,98347.81
2023-05-24T06:42:59.563Z,98348.72
2023-05-24T06:45:28.312Z,98345.97
2023-05-24T06:47:57.022Z,98356.31
2023-05-24T06:50:26.176Z,98344.72
2023-05-24T06:52:56.052Z,98348.78
2023-05-24T06:55:24.691Z,98330.53
2023-05-24T06:57:53.480Z,98354.50
2023-05-24T07:00:22.942Z,98357.66
2023-05-24T07:02:51.855Z,98336.91
2023-05-24T07:05:20.722Z,98351.81
2023-05-24T07:07:49.432Z,98355.94
2023-05-24T07:10:19.396Z,98359.34
2023-05-24T07:12:48.766Z,98359.66
2023-05-24T07:15:17.322Z,98362.56
2023-05-24T07:17:46.728Z,98363.72
2023-05-24T07:20:16.155Z,98370.13
2023-05-24T07:22:47.386Z,98374.44
2023-05-24T07:25:18.526Z,98374.34
2023-05-24T07:27:48.528Z,98376.16
2023-05-24T07:30:31.050Z,98369.66
2023-05-24T07:33:03.544Z,98365.72
2023-05-24T07:35:33.272Z,98371.38
2023-05-24T07:38:01.943Z,98366.47
2023-05-24T07:40:30.841Z,98365.38
2023-05-24T07:43:00.860Z,98363.34
2023-05-24T07:45:31.445Z,98367.00
2023-05-24T07:48:01.907Z,98371.72
2023-05-24T07:50:31.554Z,98339.47
2023-05-24T07:53:01.037Z,98349.69
2023-05-24T07:55:31.682Z,98355.59
2023-05-24T07:58:02.538Z,98372.88
2023-05-24T08:00:31.626Z,98367.31
2023-05-24T08:03:00.417Z,98365.63
2023-05-24T08:05:29.807Z,98366.94
2023-05-24T08:07:58.735Z,98357.06
2023-05-24T08:10:30.544Z,98325.78
2023-05-24T08:13:02.751Z,98367.00
2023-05-24T08:15:31.763Z,98365.97
2023-05-24T08:18:01.156Z,98357.84
2023-05-24T08:20:30.687Z,98359.44
2023-05-24T08:23:00.476Z,98375.38
2023-05-24T08:25:30.047Z,98356.31
2023-05-24T08:28:00.553Z,98366.78
2023-05-24T08:30:33.797Z,98370.28
2023-05-24T08:33:06.983Z,98386.41
2023-05-24T08:35:36.712Z,98383.78
2023-05-24T08:38:07.136Z,98378.72
2023-05-24T08:40:38.887Z,98386.50
2023-05-24T08:43:12.842Z,98378.84
2023-05-24T08:45:45.992Z,98394.63
2023-05-24T08:48:19.530Z,98389.91
2023-05-24T08:50:48.855Z,98388.31
2023-05-24T08:53:18.861Z,98385.94
2023-05-24T08:55:52.983Z,98394.28
2023-05-24T08:58:22.046Z,98395.72
2023-05-24T09:00:53.411Z,98378.28
2023-05-24T09:03:22.325Z,98393.56
2023-05-24T09:05:51.881Z,98388.25
2023-05-24T09:08:21.852Z,98393.88
2023-05-24T09:10:55.669Z,98388.81
2023-05-24T09:13:26.294Z,98403.09
2023-05-24T09:15:57.469Z,98407.44
2023-05-24T09:18:29.712Z,98412.28
2023-05-24T09:20:59.071Z,98407.88
2023-05-24T09:23:29.354Z,98411.84
2023-05-24T09:25:59.268Z,98416.28
2023-05-24T09:28:27.741Z,98408.78
2023-05-24T09:31:07.340Z,98418.63
2023-05-24T09:33:37.369Z,98419.50
2023-05-24T09:36:09.080Z,98420.00
2023-05-24T09:38:38.626Z,98411.31
2023-05-24T09:41:08.943Z,98415.28
2023-05-24T09:43:49.761Z,98412.63
2023-05-24T09:46:22.020Z,98410.94
2023-05-24T09:49:04.801Z,98407.50
2023-05-24T09:51:33.885Z,98408.63
2023-05-24T09:54:03.636Z,98412.47
2023-05-24T09:56:34.891Z,98411.84
2023-05-24T09:59:09.514Z,98388.03
2023-05-24T10:01:42.165Z,98409.66
2023-05-24T10:04:12.499Z,98416.66
2023-05-24T10:06:44.610Z,98387.88
2023-05-24T10:09:14.652Z,98408.72
2023-05-24T10:11:43.422Z,98411.00
2023-05-24T10:14:13.133Z,98414.28
2023-05-24T10:16:43.389Z,98416.88
2023-05-24T10:19:12.628Z,98405.59
2023-05-24T10:21:44.038Z,98402.41
2023-05-24T10:24:18.204Z,98410.59
2023-05-24T10:26:49.985Z,98407.50
2023-05-24T10:29:29.234Z,98398.72
2023-05-24T10:32:00.828Z,98396.56
2023-05-24T10:34:31.176Z,98395.63
2023-05-24T10:37:01.449Z,98392.22
2023-05-24T10:39:30.610Z,98395.38
2023-05-24T10:41:59.827Z,98384.53
2023-05-24T10:44:32.407Z,98389.69
2023-05-24T10:47:10.669Z,98393.63
2023-05-24T10:49:40.408Z,98377.47
2023-05-24T10:52:11.857Z,98388.25
2023-05-24T10:54:52.492Z,98384.16
2023-05-24T10:57:32.406Z,98380.69
2023-05-24T11:00:35.335Z,98390.94
2023-05-24T11:03:10.805Z,98391.94
2023-05-24T11:05:53.527Z,98394.38
2023-05-24T11:08:28.719Z,98390.53
2023-05-24T11:13:44.467Z,98396.22
2023-05-24T11:16:38.418Z,98389.88
2023-05-24T11:19:18.747Z,98385.84
2023-05-24T11:21:50.269Z,98391.66
2023-05-24T11:24:19.573Z,98391.31
2023-05-24T11:26:48.620Z,98376.91
2023-05-24T11:29:21.472Z,98386.97
2023-05-24T11:31:50.883Z,98382.81
2023-05-24T11:34:21.679Z,98370.31
2023-05-24T11:36:51.108Z,98381.69
2023-05-24T11:39:19.888Z,98382.31
2023-05-24T11:41:49.824Z,98377.03
2023-05-24T11:44:20.722Z,98387.25
2023-05-24T11:46:49.405Z,98354.91
2023-05-24T11:49:19.384Z,98375.03
2023-05-24T11:51:53.109Z,98379.56
2023-05-24T11:54:22.501Z,98361.38
2023-05-24T11:56:54.594Z,98375.53
2023-05-24T11:59:26.754Z,98372.75
2023-05-24T12:02:03.305Z,98374.50
2023-05-24T12:04:34.329Z,98350.31
2023-05-24T12:07:05.843Z,98377.06
2023-05-24T12:09:34.296Z,98364.84
2023-05-24T12:12:04.245Z,98370.31
2023-05-24T12:14:35.797Z,98361.84
2023-05-24T12:17:05.494Z,98357.09
2023-05-24T12:19:37.793Z,98365.31
2023-05-24T12:22:09.841Z,98350.97
2023-05-24T12:24:39.406Z,98358.16
2023-05-24T12:27:09.314Z,98356.38
2023-05-24T12:29:40.542Z,98351.63
2023-05-24T12:32:14.247Z,98350.03
2023-05-24T12:34:45.279Z,98349.84
2023-05-24T12:37:17.995Z,98327.28
2023-05-24T12:39:47.643Z,98353.66
2023-05-24T12:42:16.780Z,98336.06
2023-05-24T12:44:46.559Z,98320.97
2023-05-24T12:47:16.703Z,98346.94
2023-05-24T12:49:48.240Z,98346.84
2023-05-24T12:52:24.738Z,98332.50
2023-05-24T12:54:55.149Z,98319.22
2023-05-24T12:57:24.195Z,98344.22
2023-05-24T12:59:54.397Z,98335.53
2023-05-24T13:02:24.243Z,98322.03
2023-05-24T13:04:53.317Z,98332.56
2023-05-24T13:07:24.472Z,98324.50
2023-05-24T13:09:53.958Z,98328.53
2023-05-24T13:12:23.381Z,98334.06
2023-05-24T13:14:52.991Z,98322.19
2023-05-24T13:17:22.283Z,98307.94
2023-05-24T13:19:52.721Z,98329.63
2023-05-24T13:22:24.500Z,98309.56
2023-05-24T13:24:55.596Z,98317.59
2023-05-24T13:27:24.861Z,98316.94
2023-05-24T13:32:28.673Z,98311.63
2023-05-24T13:35:00.320Z,98312.19
2023-05-24T13:37:31.553Z,98314.50
2023-05-24T13:40:00.897Z,98302.78
2023-05-24T13:42:30.407Z,98290.16
2023-05-24T13:45:03.784Z,98300.88
2023-05-24T13:47:40.127Z,98302.53
2023-05-24T13:50:13.650Z,98303.13
2023-05-24T13:52:44.400Z,98302.31
2023-05-24T13:55:13.910Z,98262.63
2023-05-24T13:57:51.725Z,98293.06
2023-05-24T14:00:23.399Z,98296.25
2023-05-24T14:02:53.915Z,98282.38
2023-05-24T14:05:27.941Z,98247.50
2023-05-24T14:08:00.598Z,98280.69
2023-05-24T14:10:30.468Z,98283.44
2023-05-24T14:13:20.733Z,98272.88
2023-05-24T14:15:50.274Z,98282.25
2023-05-24T14:18:21.525Z,98288.94
2023-05-24T14:20:50.976Z,98280.31
2023-05-24T14:23:23.279Z,98269.38
2023-05-24T14:25:53.687Z,98278.56
2023-05-24T14:28:24.005Z,98277.47
2023-05-24T14:30:54.325Z,98266.00
2023-05-24T14:33:25.292Z,98275.81
2023-05-24T14:35:55.394Z,98283.53
2023-05-24T14:38:31.411Z,98283.22
2023-05-24T14:41:02.056Z,98273.34
2023-05-24T14:43:31.584Z,98272.50
2023-05-24T14:46:02.264Z,98263.59
2023-05-24T14:48:31.953Z,98255.47
2023-05-24T14:51:01.351Z,98233.81
2023-05-24T14:53:34.461Z,98258.66
2023-05-24T14:56:05.937Z,98244.47
2023-05-24T14:58:36.766Z,98268.41
2023-05-24T15:01:07.571Z,98273.59
2023-05-24T15:03:37.055Z,98284.25
2023-05-24T15:06:07.808Z,98224.34
2023-05-24T15:08:40.577Z,98283.19
2023-05-24T15:11:10.176Z,98265.22
2023-05-24T15:13:39.729Z,98279.06
2023-05-24T15:16:09.554Z,98272.03
2023-05-24T15:18:38.757Z,98277.78
2023-05-24T15:21:09.730Z,98265.22
2023-05-24T15:23:41.602Z,98248.25
2023-05-24T15:26:12.216Z,98280.59
2023-05-24T15:28:42.194Z,98279.06
2023-05-24T15:31:12.810Z,98262.81
2023-05-24T15:33:49.045Z,98268.41
2023-05-24T15:36:18.082Z,98271.91
2023-05-24T15:38:51.130Z,98279.41
2023-05-24T15:41:21.978Z,98263.75
2023-05-24T15:43:54.560Z,98275.72
2023-05-24T15:46:25.107Z,98276.13
2023-05-24T15:48:54.974Z,98264.03
2023-05-24T15:52:01.548Z,98264.59
2023-05-24T15:54:15.679Z,98282.56
2023-05-24T15:56:46.920Z,98266.53
2023-05-24T15:59:16.302Z,98281.72
2023-05-24T16:01:45.826Z,98280.88
2023-05-24T16:04:15.843Z,98279.28
2023-05-24T16:06:46.276Z,98279.00
2023-05-24T16:09:18.473Z,98263.50
2023-05-24T16:11:48.685Z,98266.44
2023-05-24T16:14:17.942Z,98274.44
2023-05-24T16:16:48.260Z,98257.84
2023-05-24T16:19:21.317Z,98278.63
2023-05-24T16:21:51.558Z,98261.00
2023-05-24T16:24:23.076Z,98271.25
2023-05-24T16:26:53.387Z,98259.75
2023-05-24T16:29:22.092Z,98268.34
2023-05-24T16:31:52.570Z,98271.19
2023-05-24T16:34:24.715Z,98239.47
2023-05-24T16:36:58.604Z,98244.81
2023-05-24T16:39:30.768Z,98249.16
2023-05-24T16:42:04.092Z,98272.28
2023-05-24T16:44:34.818Z,98264.75
2023-05-24T16:47:04.991Z,98259.56
2023-05-24T16:49:35.382Z,98276.69
2023-05-24T16:52:05.391Z,98264.59
2023-05-24T16:54:36.342Z,98246.03
2023-05-24T16:57:06.132Z,98269.66
2023-05-24T16:59:35.576Z,98266.16
2023-05-24T17:02:06.081Z,98266.59
2023-05-24T17:04:35.318Z,98254.63
2023-05-24T17:07:04.924Z,98260.13
2023-05-24T17:09:36.058Z,98267.13
2023-05-24T17:12:06.889Z,98276.69
2023-05-24T17:14:38.172Z,98266.56
2023-05-24T17:17:08.970Z,98253.50
2023-05-24T17:19:39.540Z,98252.56
2023-05-24T17:22:10.489Z,98222.75
2023-05-24T17:24:43.346Z,98255.84
2023-05-24T17:27:13.903Z,98255.84
2023-05-24T17:29:45.213Z,98244.53
2023-05-24T17:32:14.918Z,98266.63
2023-05-24T17:34:44.450Z,98227.66
2023-05-24T17:37:13.265Z,98250.50
2023-05-24T17:39:44.053Z,98275.06
2023-05-24T17:42:13.881Z,98281.72
2023-05-24T17:44:42.688Z,98247.75
2023-05-24T17:47:13.017Z,98284.03
2023-05-24T17:49:42.453Z,98270.19
2023-05-24T17:52:11.530Z,98280.13
2023-05-24T17:54:41.149Z,98289.22
2023-05-24T17:57:14.398Z,98292.88
2023-05-24T17:59:44.067Z,98297.50
2023-05-24T18:02:15.831Z,98283.84
2023-05-24T18:04:45.784Z,98293.66
2023-05-24T18:07:15.428Z,98269.38
2023-05-24T18:09:45.803Z,98303.19
2023-05-24T18:12:16.375Z,98309.75
2023-05-24T18:14:45.458Z,98300.25
2023-05-24T18:17:15.062Z,98283.25
2023-05-24T18:19:45.961Z,98309.22
2023-05-24T18:22:16.269Z,98322.91
2023-05-24T18:24:50.884Z,98309.09
2023-05-24T18:27:22.044Z,98324.81
2023-05-24T18:29:51.991Z,98321.13
2023-05-24T18:32:24.275Z,98324.91
2023-05-24T18:34:53.588Z,98312.09
2023-05-24T18:37:23.595Z,98324.91
2023-05-24T18:39:52.659Z,98325.84
2023-05-24T18:42:23.307Z,98313.53
2023-05-24T18:44:52.488Z,98304.88
2023-05-24T18:47:21.439Z,98330.50
2023-05-24T18:49:50.105Z,98327.56
2023-05-24T18:52:20.149Z,98331.41
2023-05-24T18:54:49.793Z,98337.63
2023-05-24T18:57:19.236Z,98341.53
2023-05-24T18:59:50.063Z,98351.47
2023-05-24T19:02:24.127Z,98357.63
2023-05-24T19:04:53.308Z,98342.84
2023-05-24T19:07:21.763Z,98355.19
2023-05-24T19:09:53.322Z,98355.56
2023-05-24T19:12:23.262Z,98357.88
2023-05-24T19:14:55.718Z,98351.91
2023-05-24T19:17:25.545Z,98368.31
2023-05-24T19:19:54.624Z,98375.13
2023-05-24T19:22:26.396Z,98366.38
2023-05-24T19:24:56.307Z,98380.56
2023-05-24T19:27:26.776Z,98361.88
2023-05-24T19:29:59.528Z,98396.59
2023-05-24T19:32:30.749Z,98393.34
2023-05-24T19:35:02.830Z,98353.72
2023-05-24T19:37:34.429Z,98399.56
2023-05-24T19:40:09.065Z,98366.78
2023-05-24T19:42:48.910Z,98387.19
2023-05-24T19:45:19.433Z,98398.44
2023-05-24T19:47:48.857Z,98391.25
2023-05-24T19:50:19.143Z,98382.44
2023-05-24T19:52:48.948Z,98417.53
2023-05-24T19:55:18.024Z,98403.41
2023-05-24T19:57:50.458Z,98357.88
2023-05-24T20:00:21.833Z,98342.91
2023-05-24T20:02:52.698Z,98411.59
2023-05-24T20:05:22.818Z,98388.78
2023-05-24T20:07:51.840Z,98408.59
2023-05-24T20:10:20.782Z,98390.97
2023-05-24T20:12:52.890Z,98423.19
2023-05-24T20:15:30.070Z,98421.66
2023-05-24T20:17:58.825Z,98399.81
2023-05-24T20:20:28.234Z,98430.38
2023-05-24T20:22:57.723Z,98423.78
2023-05-24T20:25:26.354Z,98421.19
2023-05-24T20:27:55.392Z,98423.84
2023-05-24T20:30:27.876Z,98423.94
2023-05-24T20:32:56.393Z,98382.81
2023-05-24T20:35:24.958Z,98430.78
2023-05-24T20:37:54.505Z,98427.38
2023-05-24T20:40:25.208Z,98434.41
2023-05-24T20:42:55.623Z,98427.94
2023-05-24T20:45:25.792Z,98428.19
2023-05-24T20:47:55.019Z,98434.03
2023-05-24T20:50:24.479Z,98428.06
2023-05-24T20:52:53.458Z,98440.78
2023-05-24T20:55:23.128Z,98438.44
2023-05-24T20:57:52.946Z,98441.09
2023-05-24T21:00:21.624Z,98444.78
2023-05-24T21:02:52.544Z,98450.94
2023-05-24T21:05:21.350Z,98454.41
2023-05-24T21:07:49.972Z,98451.09
2023-05-24T21:10:20.342Z,98456.34
2023-05-24T21:12:50.600Z,98449.53
2023-05-24T21:15:19.433Z,98464.16
2023-05-24T21:17:48.768Z,98436.34
2023-05-24T21:20:19.444Z,98456.69
2023-05-24T21:22:49.203Z,98466.09
2023-05-24T21:25:17.791Z,98467.88
2023-05-24T21:27:46.297Z,98461.97
2023-05-24T21:30:15.619Z,98474.13
2023-05-24T21:32:44.349Z,98466.72
2023-05-24T21:35:13.161Z,98473.56
2023-05-24T21:37:43.489Z,98491.78
2023-05-24T21:40:12.912Z,98483.34
2023-05-24T21:42:41.527Z,98485.00
2023-05-24T21:45:11.161Z,98487.72
2023-05-24T21:47:39.971Z,98490.94
2023-05-24T21:50:09.443Z,98490.13
2023-05-24T21:52:48.627Z,98487.84
2023-05-24T21:55:17.454Z,98484.59
2023-05-24T21:57:47.211Z,98508.47
2023-05-24T22:00:17.703Z,98494.94
2023-05-24T22:02:46.385Z,98471.94
2023-05-24T22:05:15.029Z,98500.88
2023-05-24T22:07:45.256Z,98500.16
2023-05-24T22:10:14.317Z,98503.66
2023-05-24T22:12:44.755Z,98503.63
2023-05-24T22:15:13.441Z,98520.00
2023-05-24T22:17:42.654Z,98518.38
2023-05-24T22:20:12.726Z,98516.66
2023-05-24T22:22:49.124Z,98520.16
2023-05-24T22:25:20.834Z,98514.22
2023-05-24T22:27:50.248Z,98516.78
2023-05-24T22:30:20.091Z,98520.25
2023-05-24T22:32:48.662Z,98511.75
2023-05-24T22:35:17.278Z,98490.56
2023-05-24T22:37:45.537Z,98523.72
2023-05-24T22:40:15.139Z,98522.91
2023-05-24T22:42:44.678Z,98498.28
2023-05-24T22:45:14.030Z,98509.50
2023-05-24T22:47:42.757Z,98517.16
2023-05-24T22:50:11.964Z,98505.31
2023-05-24T22:52:43.208Z,98517.16
2023-05-24T22:55:12.059Z,98533.44
2023-05-24T22:57:40.653Z,98518.91
2023-05-24T23:00:11.995Z,98526.66
2023-05-24T23:02:40.586Z,98524.94
2023-05-24T23:05:09.809Z,98525.97
2023-05-24T23:07:40.218Z,98528.53
2023-05-24T23:10:09.529Z,98516.53
2023-05-24T23:12:42.414Z,98525.09
2023-05-24T23:15:16.957Z,98527.69
2023-05-24T23:17:46.461Z,98519.25
2023-05-24T23:20:15.676Z,98512.56
2023-05-24T23:22:45.036Z,98500.81
2023-05-24T23:25:13.594Z,98505.06
2023-05-24T23:27:41.800Z,98502.63
2023-05-24T23:30:12.346Z,98513.69
2023-05-24T23:32:40.698Z,98488.31
2023-05-24T23:35:09.704Z,98523.31
2023-05-24T23:37:38.082Z,98484.28
2023-05-24T23:40:07.936Z,98514.84
2023-05-24T23:42:36.372Z,98506.44
2023-05-24T23:45:05.253Z,98523.56
2023-05-24T23:47:34.788Z,98508.53
2023-05-24T23:50:03.377Z,98526.31
2023-05-24T23:52:31.581Z,98529.00
2023-05-24T23:55:00.161Z,98511.19
2023-05-24T23:57:28.669Z,98525.66
2023-05-24T23:59:56.727Z,98533.41
